Time;durP1;ratioP1;P1;durP2;ratioP2;P2;SDS_P1;SDS_P2;PMS_P1;PMS_P2;Temp;Humidity;BMP_temperature;BMP_pressure;BME280_temperature;BME280_humidity;BME280_pressure;Samples;Min_cycle;Max_cycle;Signal;HPM_P1;HPM_P2
2022/01/18 00:00:19;;;;;;;7.50;2.60;;;10.50;69.70;;;13.74;52.35;103414.84;5073893;28;20204;-62
2022/01/18 00:02:46;;;;;;;11.20;3.00;;;10.50;69.70;;;13.74;52.35;103410.38;5106186;28;20181;-61
2022/01/18 00:05:15;;;;;;;9.17;2.50;;;10.60;69.80;;;13.74;52.24;103404.25;5074550;28;20614;-62
2022/01/18 00:07:45;;;;;;;9.50;3.30;;;10.60;69.90;;;13.76;52.46;103412.91;5074350;28;20199;-63
2022/01/18 00:10:14;;;;;;;9.70;2.47;;;10.60;69.90;;;13.78;52.41;103413.63;5107346;28;20193;-64
2022/01/18 00:13:08;;;;;;;12.00;2.53;;;10.60;70.70;;;13.77;52.31;103419.88;5073914;28;20240;-63
2022/01/18 00:18:11;;;;;;;9.33;2.90;;;10.60;70.10;;;13.78;52.48;103418.91;5073574;28;20250;-61
2022/01/18 00:23:39;;;;;;;10.63;2.83;;;10.60;70.30;;;13.78;52.66;103434.78;5073802;28;20213;-64
2022/01/18 00:26:30;;;;;;;7.60;2.50;;;10.60;70.30;;;13.77;52.58;103441.03;5074539;28;20708;-60
2022/01/18 00:29:10;;;;;;;9.27;3.00;;;10.60;70.30;;;13.78;52.51;103450.69;5074354;28;20208;-63
2022/01/18 00:32:06;;;;;;;10.13;2.83;;;10.60;70.50;;;13.77;52.71;103452.47;5073930;28;20661;-63
2022/01/18 00:34:37;;;;;;;10.23;2.80;;;10.60;70.50;;;13.74;52.87;103460.66;5073815;28;20282;-62
2022/01/18 00:39:42;;;;;;;9.70;2.80;;;10.60;70.70;;;13.74;52.90;103462.50;5074082;28;20685;-63
2022/01/18 00:42:10;;;;;;;9.30;2.43;;;10.60;71.00;;;13.75;53.10;103469.44;5074972;28;20601;-64
2022/01/18 00:44:39;;;;;;;9.47;2.77;;;10.60;71.00;;;13.72;53.11;103469.69;5073658;28;20237;-64
2022/01/18 00:47:07;;;;;;;7.10;3.00;;;10.60;71.00;;;13.70;53.07;103469.00;5072463;28;20236;-62
2022/01/18 00:49:41;;;;;;;12.13;3.30;;;10.50;71.10;;;13.70;53.21;103466.34;5073905;28;20201;-64
2022/01/18 00:52:09;;;;;;;9.37;2.50;;;10.50;71.20;;;13.64;53.47;103478.31;5073653;28;20211;-64
2022/01/18 00:54:42;;;;;;;9.43;2.97;;;10.60;71.40;;;13.62;53.55;103474.91;5073497;28;20712;-64
2022/01/18 00:57:09;;;;;;;8.43;2.93;;;10.60;71.60;;;13.61;53.80;103467.97;5073587;28;20188;-64
2022/01/18 00:59:40;;;;;;;8.87;2.43;;;10.60;71.50;;;13.60;53.90;103465.44;5073637;28;20221;-64
2022/01/18 01:02:15;;;;;;;10.90;2.60;;;10.60;71.70;;;13.58;54.05;103471.69;5072289;28;20224;-64
2022/01/18 01:04:47;;;;;;;10.23;2.73;;;10.60;71.80;;;13.57;54.32;103477.13;5072926;28;20236;-64
2022/01/18 01:07:17;;;;;;;11.77;3.00;;;10.60;71.90;;;13.54;54.09;103472.09;5072123;28;20228;-64
2022/01/18 01:09:45;;;;;;;5.67;2.50;;;10.60;71.90;;;13.53;54.24;103468.59;5073677;28;20200;-64
2022/01/18 01:12:14;;;;;;;8.93;2.47;;;10.60;72.10;;;13.55;54.32;103465.81;5073790;28;20200;-64
2022/01/18 01:14:43;;;;;;;7.47;2.40;;;10.50;72.30;;;13.57;54.23;103471.84;5072846;28;20233;-64
2022/01/18 01:44:23;;;;;;;8.73;2.20;;;10.50;73.80;;;13.63;54.64;103478.41;5052708;28;20209;-64
2022/01/18 01:46:52;;;;;;;6.57;2.37;;;10.40;73.60;;;13.63;54.67;103478.41;5053025;28;20546;-64
2022/01/18 01:49:23;;;;;;;8.17;2.37;;;10.50;73.80;;;13.63;54.79;103473.13;5053311;28;20215;-64
2022/01/18 01:51:50;;;;;;;8.03;2.00;;;10.40;73.60;;;13.62;55.19;103479.41;5059405;28;20616;-64
2022/01/18 01:54:18;;;;;;;5.17;1.80;;;10.50;73.80;;;13.63;54.75;103481.06;5052822;28;20630;-64
2022/01/18 01:56:45;;;;;;;6.17;2.50;;;10.50;73.80;;;13.65;54.89;103479.97;5051989;28;20355;-63
2022/01/18 01:59:13;;;;;;;6.83;2.30;;;10.50;73.90;;;13.67;54.79;103482.50;5052935;28;20617;-64
2022/01/18 02:01:45;;;;;;;12.90;3.17;;;10.50;73.80;;;13.68;54.74;103485.00;5052942;28;20194;-64
2022/01/18 02:04:15;;;;;;;6.57;2.63;;;10.50;74.70;;;13.69;54.73;103481.41;5068180;28;20263;-63
2022/01/18 02:06:43;;;;;;;6.87;2.57;;;10.50;74.00;;;13.73;54.72;103487.28;5052603;28;20213;-64
2022/01/18 02:09:11;;;;;;;6.90;2.33;;;10.50;74.00;;;13.75;54.77;103490.63;5072562;28;20197;-64
2022/01/18 02:11:38;;;;;;;8.30;2.67;;;10.50;74.00;;;13.76;54.64;103487.88;5088758;28;20185;-64
2022/01/18 02:14:11;;;;;;;3.60;1.73;;;10.50;74.60;;;13.76;54.60;103481.75;5072339;28;20231;-64
2022/01/18 02:22:17;;;;;;;5.20;2.10;;;10.50;73.50;;;13.63;54.65;103466.03;5072637;28;20189;-64
2022/01/18 02:24:45;;;;;;;7.87;2.50;;;10.50;73.40;;;13.62;54.81;103463.50;5073131;28;20216;-64
2022/01/18 02:27:13;;;;;;;5.93;1.93;;;10.40;73.20;;;13.60;54.91;103471.56;5058696;28;20581;-64
2022/01/18 02:29:41;;;;;;;7.07;1.83;;;10.50;73.50;;;13.61;54.93;103467.13;5076431;28;20185;-64
2022/01/18 02:32:09;;;;;;;6.47;2.10;;;10.40;73.70;;;13.57;54.87;103467.34;5075314;28;20193;-64
2022/01/18 02:34:37;;;;;;;5.83;2.00;;;10.40;73.70;;;13.53;55.08;103458.00;5074750;28;20231;-60
2022/01/18 02:37:05;;;;;;;9.50;2.20;;;10.40;73.80;;;13.49;55.18;103461.03;5076033;28;20186;-63
2022/01/18 02:39:34;;;;;;;5.83;2.40;;;10.40;73.90;;;13.50;55.32;103471.47;5074772;28;20201;-64
2022/01/18 02:42:05;;;;;;;5.90;1.93;;;10.40;74.10;;;13.49;55.03;103464.53;5076025;28;20243;-63
2022/01/18 02:44:35;;;;;;;4.23;1.80;;;10.40;74.30;;;13.51;55.26;103467.88;5075695;28;20692;-64
2022/01/18 02:47:03;;;;;;;8.87;2.47;;;10.40;74.50;;;13.54;55.04;103467.63;5075869;28;20207;-64
2022/01/18 02:49:31;;;;;;;9.80;2.60;;;10.30;74.50;;;13.54;55.65;103467.63;5075046;28;20359;-64
2022/01/18 02:52:00;;;;;;;7.23;1.73;;;10.30;74.60;;;13.53;55.33;103468.59;5076407;28;20189;-63
2022/01/18 02:54:28;;;;;;;6.13;2.20;;;10.30;74.70;;;13.49;54.94;103469.81;5075935;28;20213;-64
2022/01/18 02:57:01;;;;;;;5.50;2.70;;;10.30;74.70;;;13.49;55.24;103468.97;5074526;28;20276;-64
2022/01/18 02:59:36;;;;;;;7.03;2.70;;;10.30;74.90;;;13.50;55.46;103471.47;5075977;28;20669;-62
2022/01/18 03:05:06;;;;;;;7.37;2.83;;;10.30;75.20;;;13.52;55.58;103479.31;5075956;28;20209;-61
2022/01/18 03:07:34;;;;;;;8.07;2.30;;;10.30;75.30;;;13.54;55.54;103475.56;5075888;28;20224;-64
2022/01/18 03:10:03;;;;;;;12.10;3.77;;;10.30;75.40;;;13.56;55.67;103473.63;5075635;28;20616;-64
2022/01/18 03:12:32;;;;;;;13.50;4.13;;;10.30;75.60;;;13.56;55.61;103471.00;5073967;28;20200;-63
2022/01/18 03:14:59;;;;;;;10.30;3.53;;;10.30;75.60;;;13.56;55.61;103475.44;5075890;28;20550;-64
2022/01/18 03:17:26;;;;;;;11.27;3.30;;;10.30;75.90;;;13.56;55.85;103476.28;5076018;28;20269;-64
2022/01/18 03:19:54;;;;;;;11.27;3.17;;;10.30;75.80;;;13.57;55.88;103487.72;5075896;28;20193;-63
2022/01/18 03:22:22;;;;;;;14.40;4.40;;;10.30;76.00;;;13.60;55.97;103478.69;5075725;28;20265;-65
2022/01/18 03:25:01;;;;;;;9.33;3.23;;;10.30;76.10;;;13.61;56.06;103488.28;5075503;28;20207;-64
2022/01/18 03:30:16;;;;;;;13.50;4.50;;;10.40;76.50;;;13.64;56.16;103490.69;5074399;28;20247;-63
2022/01/18 03:32:43;;;;;;;15.07;4.37;;;10.40;76.40;;;13.65;56.18;103497.66;5075278;28;20185;-63
2022/01/18 03:35:10;;;;;;;12.23;3.93;;;10.40;76.60;;;13.66;56.12;103496.69;5090732;28;20193;-62
2022/01/18 03:37:39;;;;;;;11.70;4.53;;;10.40;76.60;;;13.65;56.25;103487.06;5074270;28;20188;-63
2022/01/18 03:40:09;;;;;;;19.47;4.33;;;10.40;76.40;;;13.66;56.16;103494.88;5074109;28;20571;-62
2022/01/18 03:42:45;;;;;;;12.53;3.87;;;10.40;76.40;;;13.64;56.14;103490.69;5075034;28;20596;-64
2022/01/18 03:45:19;;;;;;;11.27;3.37;;;10.40;76.10;;;13.56;56.27;103497.47;5075039;28;20225;-64
2022/01/18 03:47:46;;;;;;;8.13;2.80;;;10.50;75.90;;;13.52;56.52;103496.03;5055092;28;20271;-63
2022/01/18 03:50:16;;;;;;;11.20;3.70;;;10.40;75.60;;;13.51;56.48;103490.84;5054961;28;20190;-63
2022/01/18 03:52:46;;;;;;;8.83;3.37;;;10.50;75.60;;;13.50;56.45;103497.94;5054354;28;20243;-62
2022/01/18 03:55:17;;;;;;;9.77;3.53;;;10.50;75.70;;;13.53;56.35;103507.44;5053730;28;20271;-63
2022/01/18 03:57:45;;;;;;;11.97;3.13;;;10.40;75.70;;;13.54;56.42;103503.84;5054893;28;20308;-64
2022/01/18 04:00:19;;;;;;;13.03;3.93;;;10.40;75.80;;;13.55;56.27;103516.09;5053601;28;20217;-64
2022/01/18 04:02:48;;;;;;;11.97;3.20;;;10.40;75.80;;;13.57;56.17;103508.88;5060459;28;20199;-63
2022/01/18 04:05:16;;;;;;;10.77;3.33;;;10.40;75.90;;;13.60;55.99;103507.78;5054641;28;20243;-62
2022/01/18 04:07:45;;;;;;;14.37;3.40;;;10.40;75.90;;;13.63;55.96;103513.66;5054608;28;20582;-64
2022/01/18 04:10:13;;;;;;;12.27;3.77;;;10.40;76.10;;;13.65;56.04;103505.59;5054444;28;20212;-64
2022/01/18 04:12:41;;;;;;;13.43;4.37;;;10.40;76.10;;;13.65;56.15;103500.28;5052781;28;20345;-63
2022/01/18 04:15:12;;;;;;;15.10;4.27;;;10.40;76.20;;;13.66;56.20;103507.28;5070166;28;20289;-64
2022/01/18 04:30:53;;;;;;;12.70;4.63;;;10.50;76.00;;;13.74;56.18;103499.56;5090561;28;20220;-62
2022/01/18 04:33:22;;;;;;;12.53;4.87;;;10.50;76.00;;;13.71;56.18;103500.66;5073373;28;20217;-64
2022/01/18 04:35:49;;;;;;;14.73;4.60;;;10.50;75.90;;;13.66;56.62;103496.69;5073690;28;20195;-63
2022/01/18 04:38:17;;;;;;;22.23;4.70;;;10.60;76.00;;;13.63;56.50;103491.66;5073944;28;20213;-64
2022/01/18 04:40:46;;;;;;;14.87;4.97;;;10.50;75.90;;;13.60;56.60;103491.91;5073179;28;20247;-64
2022/01/18 04:48:52;;;;;;;17.73;5.50;;;10.50;76.20;;;13.56;56.71;103508.03;5073946;28;20249;-62
2022/01/18 04:51:21;;;;;;;19.20;5.63;;;10.50;76.20;;;13.60;56.73;103507.78;5072359;28;20197;-63
2022/01/18 04:53:54;;;;;;;17.97;4.80;;;10.50;76.20;;;13.64;56.64;103517.16;5073378;28;20273;-63
2022/01/18 04:57:51;;;;;;;20.33;5.13;;;10.50;76.30;;;13.66;57.02;103518.72;5056123;28;20529;-64
2022/01/18 04:59:18;;;;;;;18.07;5.03;;;10.50;76.40;;;13.67;56.46;103527.50;5073641;28;20190;-64
2022/01/18 05:01:50;;;;;;;19.13;4.97;;;10.50;76.50;;;13.68;56.46;103521.22;5072373;28;20295;-63
2022/01/18 05:04:19;;;;;;;16.97;4.57;;;10.50;76.50;;;13.70;56.48;103527.22;5073091;28;20213;-63
2022/01/18 05:06:46;;;;;;;17.37;5.20;;;10.50;76.40;;;13.70;56.40;103528.06;5088892;28;20689;-62
2022/01/18 05:09:14;;;;;;;19.30;4.97;;;10.50;76.30;;;13.68;56.50;103518.56;5071885;28;20193;-62
2022/01/18 05:11:58;;;;;;;19.33;5.40;;;10.50;76.40;;;13.67;56.79;103530.16;5073403;28;20621;-64
2022/01/18 05:14:29;;;;;;;17.43;4.87;;;10.50;76.50;;;13.66;56.54;103528.44;5073068;28;20213;-64
2022/01/18 05:17:13;;;;;;;16.87;4.80;;;10.40;76.50;;;13.65;56.54;103537.34;5072204;28;20193;-64
2022/01/18 05:24:57;;;;;;;17.23;5.33;;;10.40;76.80;;;13.64;56.66;103546.28;5073013;28;20213;-64
2022/01/18 05:27:24;;;;;;;14.73;5.67;;;10.40;77.70;;;13.65;56.77;103554.06;5071856;28;20296;-64
2022/01/18 05:29:52;;;;;;;13.30;4.13;;;10.40;77.00;;;13.66;56.78;103554.91;5073196;28;20219;-64
2022/01/18 05:32:19;;;;;;;13.77;3.73;;;10.40;77.00;;;13.67;56.99;103562.72;5071955;28;20211;-64
2022/01/18 05:34:48;;;;;;;20.93;7.83;;;10.40;77.10;;;13.69;56.77;103555.53;5070868;28;20231;-62
2022/01/18 05:37:17;;;;;;;16.47;5.23;;;10.40;77.10;;;13.72;56.68;103554.41;5072893;28;20185;-65
2022/01/18 05:39:44;;;;;;;17.73;6.17;;;10.40;77.10;;;13.72;56.65;103549.97;5071751;28;20271;-64
2022/01/18 05:42:13;;;;;;;21.63;5.50;;;10.40;77.10;;;13.72;56.75;103554.41;5072330;28;20202;-64
2022/01/18 05:44:40;;;;;;;15.17;4.17;;;10.40;77.10;;;13.75;56.63;103551.50;5072575;28;20693;-64
2022/01/18 05:47:08;;;;;;;21.00;5.30;;;10.50;77.10;;;13.75;56.71;103548.88;5071505;28;20685;-64
2022/01/18 05:49:35;;;;;;;17.50;5.33;;;10.50;77.00;;;13.76;56.71;103555.84;5072860;28;20193;-63
2022/01/18 05:52:05;;;;;;;17.10;4.53;;;10.50;76.90;;;13.76;56.69;103559.34;5071825;28;20207;-65
2022/01/18 05:54:32;;;;;;;19.30;4.90;;;10.50;76.90;;;13.78;56.60;103564.50;5072354;28;20300;-63
2022/01/18 05:57:00;;;;;;;13.37;5.23;;;10.50;77.00;;;13.76;56.66;103569.94;5072309;28;20231;-65
2022/01/18 05:59:35;;;;;;;19.33;5.77;;;10.50;76.90;;;13.76;56.56;103571.75;5071814;28;20227;-64
2022/01/18 06:02:13;;;;;;;20.50;5.30;;;10.50;76.90;;;13.75;56.77;103580.63;5076668;28;20208;-64
2022/01/18 06:07:30;;;;;;;16.67;5.90;;;10.50;76.90;;;13.69;56.78;103568.75;5075030;28;20231;-63
2022/01/18 06:09:58;;;;;;;21.53;6.10;;;10.50;76.80;;;13.65;56.77;103569.09;5076829;28;20268;-65
2022/01/18 06:12:27;;;;;;;16.83;5.00;;;10.50;76.80;;;13.63;56.59;103568.41;5076697;28;20199;-64
2022/01/18 06:14:55;;;;;;;19.23;5.50;;;10.50;76.80;;;13.63;56.87;103571.03;5076106;28;20219;-64
2022/01/18 06:17:22;;;;;;;19.17;5.30;;;10.50;76.90;;;13.64;56.99;103570.09;5076989;28;20709;-65
2022/01/18 06:19:50;;;;;;;17.03;5.00;;;10.40;76.80;;;13.65;56.88;103575.25;5076465;28;20193;-63
2022/01/18 06:22:18;;;;;;;17.97;5.30;;;10.40;77.00;;;13.63;56.89;103578.97;5091626;28;20194;-64
2022/01/18 06:24:47;;;;;;;13.93;4.90;;;10.40;77.00;;;13.63;56.49;103584.28;5074702;28;20221;-64
2022/01/18 06:27:14;;;;;;;15.63;5.20;;;10.40;77.10;;;13.64;56.88;103588.63;5076021;28;20299;-63
2022/01/18 06:29:42;;;;;;;23.50;5.50;;;10.40;77.20;;;13.64;56.96;103583.31;5075313;28;20268;-64
2022/01/18 06:32:09;;;;;;;18.80;5.53;;;10.40;77.30;;;13.67;57.10;103588.38;5075941;28;20568;-66
2022/01/18 06:34:37;;;;;;;24.03;5.93;;;10.40;77.30;;;13.67;56.77;103588.38;5074715;28;20229;-63
2022/01/18 06:37:04;;;;;;;16.90;5.60;;;10.40;77.30;;;13.66;56.91;103584.03;5075247;28;20212;-65
2022/01/18 06:39:32;;;;;;;21.97;7.90;;;10.40;77.30;;;13.66;56.97;103587.53;5075348;28;20272;-65
2022/01/18 06:42:01;;;;;;;24.80;6.80;;;10.40;77.30;;;13.68;56.96;103582.09;5075776;28;20195;-64
2022/01/18 06:44:29;;;;;;;15.00;4.70;;;10.40;77.30;;;13.69;56.77;103581.16;5075733;28;20205;-66
2022/01/18 06:46:57;;;;;;;18.93;5.93;;;10.40;77.30;;;13.69;57.15;103586.44;5075511;28;20522;-65
2022/01/18 06:49:24;;;;;;;18.20;5.80;;;10.40;77.30;;;13.69;57.04;103587.28;5076174;28;20199;-66
2022/01/18 06:51:51;;;;;;;16.83;5.40;;;10.40;77.40;;;13.72;57.01;103591.47;5074566;28;20553;-63
2022/01/18 06:54:19;;;;;;;23.60;5.97;;;10.40;77.40;;;13.73;56.96;103596.66;5075444;28;20216;-64
2022/01/18 06:56:49;;;;;;;20.57;6.10;;;10.40;77.40;;;13.76;56.95;103600.84;5075449;28;20229;-64
2022/01/18 06:59:18;;;;;;;25.57;5.83;;;10.50;77.60;;;13.77;56.91;103603.38;5074321;28;20212;-64
2022/01/18 07:01:46;;;;;;;15.13;4.67;;;10.50;77.60;;;13.79;57.00;103597.94;5075221;28;20207;-63
2022/01/18 07:04:13;;;;;;;20.30;6.20;;;10.50;77.60;;;13.81;56.97;103601.34;5074411;28;20224;-66
2022/01/18 07:06:41;;;;;;;18.30;5.90;;;10.50;77.60;;;13.83;56.80;103600.25;5090338;28;20204;-65
2022/01/18 07:09:08;;;;;;;17.23;4.53;;;10.50;77.40;;;13.83;56.95;103605.53;5075150;28;20262;-64
2022/01/18 07:11:36;;;;;;;12.73;5.00;;;10.50;77.40;;;13.84;56.97;103601.06;5073922;28;20193;-63
2022/01/18 07:14:03;;;;;;;21.73;6.40;;;10.60;77.50;;;13.87;57.01;103600.81;5074299;28;20215;-64
2022/01/18 07:16:37;;;;;;;15.57;5.23;;;10.60;77.50;;;13.89;56.92;103605.03;5074546;28;20220;-64
2022/01/18 07:19:04;;;;;;;22.37;7.70;;;10.70;77.30;;;13.93;56.80;103605.63;5074645;28;20650;-64
2022/01/18 07:21:31;;;;;;;18.83;5.90;;;10.70;77.40;;;13.97;56.79;103609.69;5074440;28;20189;-66
2022/01/18 07:24:05;;;;;;;15.53;5.20;;;10.70;77.00;;;14.00;56.58;103612.09;5074345;28;20621;-66
2022/01/18 07:26:33;;;;;;;22.53;5.30;;;10.70;76.70;;;13.97;56.48;103618.50;5075139;28;20181;-64
2022/01/18 07:29:00;;;;;;;18.33;5.10;;;10.70;76.50;;;13.93;56.36;103617.03;5074780;28;20240;-65
2022/01/18 07:31:28;;;;;;;18.40;5.73;;;10.70;76.50;;;13.90;56.55;103627.06;5074768;28;20247;-65
2022/01/18 07:33:58;;;;;;;19.30;5.10;;;10.70;76.60;;;13.90;56.74;103632.34;5074454;28;20253;-66
2022/01/18 07:36:26;;;;;;;17.70;4.50;;;10.70;76.90;;;13.93;56.92;103630.28;5074749;28;20189;-66
2022/01/18 07:38:55;;;;;;;17.40;5.53;;;10.70;76.90;;;13.96;56.65;103631.84;5074212;28;20193;-65
2022/01/18 07:41:23;;;;;;;13.50;4.60;;;10.70;76.60;;;13.97;56.40;103644.13;5089997;28;20215;-63
2022/01/18 07:43:50;;;;;;;17.43;5.90;;;10.70;76.50;;;13.96;56.43;103639.78;5073166;28;20205;-64
2022/01/18 07:46:18;;;;;;;17.90;5.90;;;10.70;76.40;;;13.96;56.45;103648.56;5073118;28;20212;-62
2022/01/18 07:48:45;;;;;;;15.47;4.83;;;10.70;76.40;;;13.98;56.28;103645.78;5074606;28;20213;-65
2022/01/18 07:51:16;;;;;;;17.27;5.13;;;10.70;76.30;;;13.97;56.15;103633.53;5071953;28;20243;-64
2022/01/18 07:53:43;;;;;;;13.87;4.97;;;10.70;76.20;;;13.99;56.60;103642.19;5071815;28;20213;-63
2022/01/18 07:56:11;;;;;;;16.90;5.40;;;10.70;76.50;;;14.02;55.98;103655.19;5070751;28;20236;-65
2022/01/18 07:58:38;;;;;;;12.83;4.53;;;10.80;76.40;;;14.03;56.49;103640.97;5070357;28;20285;-64
2022/01/18 08:01:06;;;;;;;15.73;5.60;;;10.80;76.40;;;14.05;56.32;103641.66;5072439;28;20205;-65
2022/01/18 08:03:33;;;;;;;18.27;4.67;;;10.80;76.10;;;14.04;56.02;103643.50;5085641;28;20687;-64
2022/01/18 08:06:01;;;;;;;16.40;4.60;;;10.80;76.10;;;14.04;56.15;103640.00;5053771;28;20219;-64
2022/01/18 08:08:32;;;;;;;14.93;3.97;;;10.80;76.10;;;14.02;55.95;103648.09;5053990;28;20213;-64
2022/01/18 08:10:59;;;;;;;9.13;3.77;;;10.80;76.10;;;14.03;55.95;103651.56;5053947;28;20268;-64
2022/01/18 08:13:36;;;;;;;15.07;4.33;;;10.80;75.80;;;14.04;56.00;103658.53;5053881;28;20543;-62
2022/01/18 08:16:33;;;;;;;17.77;3.67;;;10.80;75.80;;;14.05;56.04;103660.22;5055382;28;20186;-62
2022/01/18 08:19:04;;;;;;;13.07;4.27;;;10.80;75.60;;;14.02;55.88;103653.38;5066755;28;20619;-63
2022/01/18 08:21:35;;;;;;;17.20;4.17;;;10.80;75.80;;;14.03;56.00;103648.91;5075533;28;20212;-64
2022/01/18 08:24:04;;;;;;;12.97;3.43;;;10.80;75.50;;;14.05;55.94;103657.56;5073103;28;20291;-64
2022/01/18 08:26:31;;;;;;;11.50;4.23;;;10.80;75.70;;;14.06;55.65;103651.31;5073813;28;20224;-64
2022/01/18 08:28:58;;;;;;;13.27;3.30;;;10.80;75.40;;;14.04;55.85;103656.75;5073348;28;20700;-63
2022/01/18 08:31:26;;;;;;;11.23;3.13;;;10.80;75.40;;;14.04;55.80;103656.75;5073838;28;20193;-64
2022/01/18 08:33:53;;;;;;;10.70;3.13;;;10.80;75.50;;;14.06;55.85;103664.56;5069977;28;20221;-64
2022/01/18 08:36:21;;;;;;;12.00;3.60;;;10.80;75.50;;;14.07;55.72;103666.25;5066789;28;20193;-64
2022/01/18 08:38:48;;;;;;;11.50;3.93;;;10.80;75.30;;;14.08;55.66;103666.13;5064853;28;20284;-64
2022/01/18 08:41:17;;;;;;;12.77;3.80;;;10.80;75.30;;;14.08;55.56;103667.91;5069442;28;20221;-65
2022/01/18 08:43:45;;;;;;;15.00;4.63;;;10.80;75.20;;;14.08;55.55;103668.75;5072786;28;20229;-65
2022/01/18 08:46:12;;;;;;;15.33;4.37;;;10.80;75.00;;;14.08;55.39;103667.91;5073865;28;20669;-66
2022/01/18 08:48:40;;;;;;;9.80;4.43;;;10.80;75.10;;;14.08;55.56;103678.50;5072967;28;20209;-66
2022/01/18 08:51:08;;;;;;;15.50;3.97;;;10.80;75.10;;;14.07;55.65;103679.50;5073672;28;20588;-61
2022/01/18 08:53:37;;;;;;;11.50;3.90;;;10.80;75.10;;;14.06;55.52;103675.16;5067327;28;22164;-66
2022/01/18 08:56:05;;;;;;;11.53;4.07;;;10.80;75.00;;;14.06;55.61;103669.84;5065070;28;20219;-64
2022/01/18 08:58:34;;;;;;;10.63;3.63;;;10.80;74.90;;;14.07;55.48;103671.53;5067859;28;20201;-64
2022/01/18 09:01:03;;;;;;;19.20;4.80;;;10.80;74.90;;;14.10;55.37;103676.56;5053242;28;20205;-63
2022/01/18 09:03:31;;;;;;;17.23;4.20;;;10.90;75.00;;;14.10;55.45;103666.81;5058991;28;20244;-65
2022/01/18 09:05:59;;;;;;;14.20;4.07;;;10.80;74.90;;;14.12;55.50;103675.47;5071168;28;20288;-65
2022/01/18 09:08:26;;;;;;;15.97;5.30;;;10.80;74.80;;;14.13;55.33;103671.03;5064618;28;20324;-65
2022/01/18 09:10:54;;;;;;;16.77;4.40;;;10.90;75.40;;;14.13;54.98;103676.31;5052828;28;20197;-65
2022/01/18 09:13:22;;;;;;;17.13;4.53;;;10.80;74.60;;;14.10;55.19;103681.88;5055336;28;20316;-62
2022/01/18 09:15:52;;;;;;;17.27;4.90;;;10.90;74.80;;;14.04;55.34;103687.69;5073213;28;20548;-64
2022/01/18 09:18:19;;;;;;;12.93;3.90;;;10.90;74.50;;;13.97;55.40;103675.91;5068599;28;20193;-63
2022/01/18 09:20:47;;;;;;;12.27;3.90;;;10.90;74.50;;;13.94;55.43;103692.88;5052774;28;20722;-65
2022/01/18 09:23:15;;;;;;;13.93;4.43;;;10.80;74.40;;;13.95;55.48;103689.25;5055993;28;20209;-62
2022/01/18 09:25:42;;;;;;;16.43;5.27;;;10.80;74.60;;;13.97;55.41;103690.00;5072167;28;20217;-65
2022/01/18 09:28:14;;;;;;;18.80;5.33;;;10.80;74.60;;;13.99;55.43;103687.19;5071261;28;20630;-64
2022/01/18 09:30:42;;;;;;;21.23;4.80;;;10.80;74.60;;;13.99;55.36;103682.75;5072987;28;20192;-60
2022/01/18 09:33:11;;;;;;;19.90;5.13;;;10.80;74.60;;;14.00;55.39;103680.97;5070572;28;20217;-64
2022/01/18 09:35:39;;;;;;;16.37;4.90;;;10.80;74.60;;;14.01;55.45;103693.22;5071926;28;20241;-63
2022/01/18 09:38:07;;;;;;;14.83;3.90;;;10.80;74.60;;;14.05;55.68;103690.19;5066068;28;20601;-66
2022/01/18 09:40:38;;;;;;;13.37;4.17;;;10.80;74.60;;;14.10;55.18;103687.16;5062959;28;20269;-65
2022/01/18 09:43:12;;;;;;;11.23;4.17;;;10.80;74.40;;;14.14;55.04;103704.50;5064506;28;20225;-61
2022/01/18 09:45:42;;;;;;;15.33;4.63;;;10.80;74.30;;;14.16;54.83;103697.28;5036156;28;20200;-61
2022/01/18 09:48:14;;;;;;;17.37;4.73;;;10.90;74.40;;;14.16;54.84;103710.53;5054229;28;20225;-62
2022/01/18 09:50:44;;;;;;;11.97;4.33;;;10.90;74.10;;;14.15;54.90;103708.81;5053646;28;20243;-62
2022/01/18 09:53:12;;;;;;;12.63;4.50;;;10.90;74.10;;;14.14;54.81;103715.09;5053933;28;20237;-65
2022/01/18 09:55:42;;;;;;;15.67;5.00;;;10.90;74.00;;;14.18;54.76;103711.22;5052847;28;20185;-65
2022/01/18 09:58:11;;;;;;;13.60;4.87;;;11.00;74.10;;;14.22;54.96;103712.66;5068557;28;20197;-64
2022/01/18 10:00:42;;;;;;;12.83;4.57;;;11.00;73.90;;;14.24;54.69;103716.03;5068076;28;20287;-62
2022/01/18 10:03:31;;;;;;;8.80;3.43;;;11.00;73.70;;;14.25;54.70;103712.41;5080212;28;20266;-62
2022/01/18 10:05:59;;;;;;;12.97;4.27;;;11.00;73.60;;;14.30;54.39;103715.56;5069625;28;20199;-66
2022/01/18 10:08:29;;;;;;;9.67;4.20;;;11.10;73.50;;;14.35;54.47;103713.38;5071653;28;20209;-63
2022/01/18 10:11:00;;;;;;;13.07;3.47;;;11.10;73.20;;;14.39;54.26;103709.50;5065332;28;20204;-61
2022/01/18 10:13:30;;;;;;;12.50;3.90;;;11.10;73.20;;;14.44;54.20;103706.47;5064803;28;20610;-63
2022/01/18 10:16:09;;;;;;;13.10;3.60;;;11.10;73.10;;;14.49;53.88;103704.28;5050921;28;20190;-62
2022/01/18 10:18:48;;;;;;;12.83;4.00;;;11.20;73.20;;;14.56;53.87;103711.63;5064511;28;20193;-62
2022/01/18 10:21:29;;;;;;;10.80;3.87;;;11.20;72.90;;;14.62;53.61;103705.78;5052268;28;20275;-65
2022/01/18 10:24:16;;;;;;;14.30;5.67;;;11.30;72.60;;;14.67;53.57;103703.59;5082680;28;20571;-65
2022/01/18 10:26:46;;;;;;;10.20;4.30;;;11.40;72.70;;;14.75;53.35;103706.47;5052322;28;20217;-63
2022/01/18 10:29:15;;;;;;;9.40;4.20;;;11.40;72.40;;;14.79;53.19;103707.88;5057462;28;20232;-63
2022/01/18 10:31:57;;;;;;;42.40;29.20;;;11.40;71.80;;;14.79;52.84;103707.88;5071960;28;20231;-62
2022/01/18 10:37:09;;;;;;;8.93;3.10;;;11.50;71.00;;;14.84;52.47;103711.00;5072525;28;20193;-63
2022/01/18 10:39:41;;;;;;;14.20;4.27;;;11.50;70.40;;;14.87;52.03;103713.38;5072077;28;20526;-64
2022/01/18 10:42:24;;;;;;;9.97;3.63;;;11.60;70.40;;;14.85;51.81;103715.34;5072059;28;20216;-64
2022/01/18 10:45:00;;;;;;;11.90;3.30;;;11.60;69.70;;;14.84;51.81;103713.63;5071904;28;20625;-62
2022/01/18 10:47:28;;;;;;;11.63;2.80;;;11.60;69.80;;;14.85;51.54;103711.84;5074488;28;20200;-64
2022/01/18 10:50:05;;;;;;;14.73;4.27;;;11.60;69.10;;;14.87;51.33;103710.75;5057563;28;20247;-64
2022/01/18 10:52:32;;;;;;;9.47;3.03;;;11.60;68.80;;;14.88;51.44;103717.72;5057633;28;20200;-65
2022/01/18 10:55:00;;;;;;;8.10;3.00;;;11.60;69.10;;;14.88;51.37;103708.94;5075354;28;20296;-65
2022/01/18 10:57:30;;;;;;;8.10;3.03;;;11.60;68.80;;;14.86;50.94;103706.38;5075604;28;20297;-65
2022/01/18 11:00:04;;;;;;;8.30;2.73;;;11.60;68.40;;;14.82;51.02;103704.97;5091054;28;20185;-62
2022/01/18 11:02:34;;;;;;;10.33;3.30;;;11.60;68.20;;;14.84;50.66;103700.38;5070398;28;20213;-65
2022/01/18 11:05:14;;;;;;;8.77;3.40;;;11.70;67.90;;;14.84;50.62;103697.72;5067476;28;20213;-64
2022/01/18 11:07:42;;;;;;;10.37;2.93;;;11.60;67.50;;;14.88;50.82;103699.13;5090334;28;20600;-63
2022/01/18 11:10:11;;;;;;;10.67;3.53;;;11.70;68.10;;;14.87;50.39;103694.81;5074388;28;20641;-62
2022/01/18 11:12:51;;;;;;;10.20;2.80;;;11.70;67.20;;;14.80;50.05;103698.97;5072967;28;20212;-64
2022/01/18 11:15:22;;;;;;;10.87;3.13;;;11.70;66.70;;;14.74;49.76;103698.63;5074433;28;20197;-63
2022/01/18 11:18:00;;;;;;;11.00;3.50;;;11.60;66.30;;;14.63;49.45;103712.78;5073958;28;20197;-64
2022/01/18 11:20:32;;;;;;;9.33;3.30;;;11.50;65.90;;;14.49;49.77;103713.09;5073182;28;20200;-65
2022/01/18 11:23:03;;;;;;;10.17;3.40;;;11.50;66.00;;;14.38;50.00;103707.00;5073612;28;20752;-64
2022/01/18 11:25:32;;;;;;;9.27;3.73;;;11.40;66.20;;;14.30;50.38;103715.56;5072838;28;20193;-64
2022/01/18 11:27:59;;;;;;;8.93;3.37;;;11.40;66.40;;;14.23;50.41;103709.06;5073896;28;20193;-65
2022/01/18 11:30:31;;;;;;;8.13;3.83;;;11.30;66.60;;;14.23;50.54;103704.59;5072110;28;20331;-65
2022/01/18 11:33:04;;;;;;;11.47;4.37;;;11.20;66.90;;;14.22;50.69;103702.91;5073604;28;20224;-64
2022/01/18 11:35:45;;;;;;;18.47;4.27;;;11.20;67.30;;;14.21;50.84;103711.00;5072793;28;20193;-64